Time;durP1;ratioP1;P1;durP2;ratioP2;P2;SDS_P1;SDS_P2;PMS_P1;PMS_P2;Temp;Humidity;BMP_temperature;BMP_pressure;BME280_temperature;BME280_humidity;BME280_pressure;Samples;Min_cycle;Max_cycle;Signal;HPM_P1;HPM_P2
2021/07/15 00:01:45;;;;;;;2.38;1.90;;;10.90;76.50;;;;;;5012683;28;20209;-65
2021/07/15 00:04:15;;;;;;;3.28;1.95;;;10.90;76.40;;;;;;5016740;28;20073;-66
2021/07/15 00:06:42;;;;;;;3.42;1.85;;;10.90;76.40;;;;;;5014448;28;20040;-65
2021/07/15 00:09:11;;;;;;;5.78;1.60;;;10.80;76.50;;;;;;5014737;28;20010;-66
2021/07/15 00:11:40;;;;;;;2.45;1.65;;;10.90;76.50;;;;;;5014530;28;20022;-66
2021/07/15 00:14:07;;;;;;;3.72;2.10;;;10.80;76.70;;;;;;5013220;28;20384;-66
2021/07/15 00:16:34;;;;;;;2.10;1.27;;;10.80;76.70;;;;;;5013949;28;20022;-66
2021/07/15 00:19:00;;;;;;;3.20;1.30;;;10.70;76.80;;;;;;5014658;28;20113;-65
2021/07/15 00:21:27;;;;;;;4.38;1.10;;;10.70;76.80;;;;;;5015366;28;20061;-65
2021/07/15 00:23:54;;;;;;;3.63;2.10;;;10.80;77.10;;;;;;5019550;28;20113;-65
2021/07/15 00:26:23;;;;;;;3.28;1.42;;;10.80;77.00;;;;;;5016801;28;20112;-65
2021/07/15 00:28:50;;;;;;;3.05;1.92;;;10.70;76.90;;;;;;5018614;28;20022;-66
2021/07/15 00:31:17;;;;;;;2.78;1.58;;;10.80;76.90;;;;;;5014534;28;20093;-65
2021/07/15 00:33:45;;;;;;;8.10;1.70;;;10.70;76.70;;;;;;5013701;28;20018;-66
2021/07/15 00:36:12;;;;;;;8.77;2.85;;;10.70;76.80;;;;;;5013404;28;20034;-65
2021/07/15 00:38:39;;;;;;;2.35;1.67;;;10.70;76.90;;;;;;5013061;28;20022;-65
2021/07/15 00:41:06;;;;;;;3.05;1.50;;;10.70;76.90;;;;;;5014125;28;20477;-66
2021/07/15 00:43:33;;;;;;;2.85;1.67;;;10.70;76.80;;;;;;5015974;28;20048;-65
2021/07/15 00:46:00;;;;;;;4.95;2.00;;;10.70;76.70;;;;;;5013675;28;20025;-65
2021/07/15 00:48:27;;;;;;;3.50;2.05;;;10.70;76.90;;;;;;5013857;28;20024;-67
2021/07/15 00:50:53;;;;;;;3.45;1.23;;;10.60;76.70;;;;;;5014407;28;20018;-65
2021/07/15 00:53:20;;;;;;;3.03;1.23;;;10.70;76.80;;;;;;5013757;28;20109;-65
2021/07/15 00:55:47;;;;;;;2.47;1.20;;;10.60;76.70;;;;;;5015205;28;20116;-65
2021/07/15 00:58:16;;;;;;;2.83;2.33;;;10.60;76.70;;;;;;5012240;28;20087;-65
2021/07/15 01:00:48;;;;;;;1.58;1.38;;;10.60;76.70;;;;;;5017855;28;20026;-65
2021/07/15 01:03:16;;;;;;;5.57;1.45;;;10.60;76.70;;;;;;5013583;28;20042;-67
2021/07/15 01:05:45;;;;;;;3.33;1.10;;;10.60;76.70;;;;;;5014477;28;20033;-66
2021/07/15 01:08:13;;;;;;;2.35;1.50;;;10.60;77.00;;;;;;5013700;28;20088;-66
2021/07/15 01:10:51;;;;;;;4.63;1.40;;;10.50;77.00;;;;;;5012383;28;20101;-66
2021/07/15 01:13:25;;;;;;;2.63;1.42;;;10.50;76.90;;;;;;5010799;28;20359;-66
2021/07/15 01:16:25;;;;;;;2.47;1.00;;;10.50;77.10;;;;;;5013902;28;20022;-65
2021/07/15 01:19:19;;;;;;;1.90;0.80;;;10.50;77.10;;;;;;5011639;28;20505;-66
2021/07/15 01:21:48;;;;;;;2.63;1.13;;;10.40;77.20;;;;;;5014084;28;20030;-65
2021/07/15 01:25:02;;;;;;;1.33;1.10;;;10.40;77.40;;;;;;5015459;28;20034;-66
2021/07/15 01:27:47;;;;;;;3.80;1.00;;;10.40;77.40;;;;;;5010557;28;20046;-65
2021/07/15 01:30:47;;;;;;;1.20;0.77;;;10.40;77.40;;;;;;5014380;28;20026;-65
2021/07/15 01:33:23;;;;;;;2.75;1.05;;;10.40;77.60;;;;;;5014357;28;20104;-66
2021/07/15 01:36:04;;;;;;;2.53;0.95;;;10.40;77.70;;;;;;5012136;28;20022;-65
2021/07/15 01:38:41;;;;;;;2.15;0.82;;;10.40;77.70;;;;;;5013035;28;20075;-65
2021/07/15 01:41:14;;;;;;;1.13;0.60;;;10.40;77.70;;;;;;5016202;28;20461;-66
2021/07/15 01:43:46;;;;;;;1.42;0.45;;;10.40;77.70;;;;;;5014018;28;20826;-65
2021/07/15 01:46:14;;;;;;;2.80;0.63;;;10.40;77.70;;;;;;5012001;28;20057;-65
2021/07/15 01:48:42;;;;;;;2.53;0.52;;;10.40;77.90;;;;;;5013520;28;20022;-66
2021/07/15 01:51:10;;;;;;;0.73;0.52;;;10.40;77.70;;;;;;5010905;28;20037;-65
2021/07/15 01:53:37;;;;;;;1.63;0.80;;;10.40;78.00;;;;;;5015690;28;20092;-66
2021/07/15 01:56:06;;;;;;;1.30;0.93;;;10.40;78.10;;;;;;5013365;28;20482;-66
2021/07/15 01:58:36;;;;;;;2.33;1.23;;;10.40;77.90;;;;;;5010881;28;20022;-66
2021/07/15 02:01:05;;;;;;;4.72;1.15;;;10.40;77.90;;;;;;5016159;28;20061;-65
2021/07/15 02:03:33;;;;;;;6.00;1.33;;;10.40;77.70;;;;;;5012246;28;20030;-66
2021/07/15 02:06:01;;;;;;;3.05;1.10;;;10.40;77.90;;;;;;5011521;28;20031;-65
2021/07/15 02:09:07;;;;;;;2.00;1.17;;;10.40;78.00;;;;;;5009997;28;20068;-67
2021/07/15 02:12:13;;;;;;;2.30;1.07;;;10.30;77.80;;;;;;5010288;28;20026;-66
2021/07/15 02:15:17;;;;;;;4.70;1.20;;;10.30;78.00;;;;;;5011890;28;20310;-66
2021/07/15 02:17:45;;;;;;;2.53;0.90;;;10.30;78.00;;;;;;5005989;28;20057;-66
2021/07/15 02:20:21;;;;;;;2.13;0.40;;;10.30;78.30;;;;;;5010283;28;20474;-66
2021/07/15 02:22:50;;;;;;;2.00;0.73;;;10.30;78.40;;;;;;5012932;28;20038;-66
2021/07/15 02:25:18;;;;;;;0.75;0.75;;;10.30;78.60;;;;;;5013226;28;20022;-66
2021/07/15 02:27:45;;;;;;;2.97;0.90;;;10.30;79.10;;;;;;5007883;28;20014;-66
2021/07/15 02:30:15;;;;;;;1.60;1.08;;;10.30;78.80;;;;;;5012370;28;20443;-66
2021/07/15 02:32:51;;;;;;;4.30;1.17;;;10.30;78.60;;;;;;5011162;28;20018;-65
2021/07/15 02:35:20;;;;;;;0.98;0.88;;;10.30;78.70;;;;;;5010968;28;20068;-66
2021/07/15 02:37:48;;;;;;;2.00;1.10;;;10.20;78.80;;;;;;5010325;28;20040;-66
2021/07/15 02:40:16;;;;;;;1.13;1.00;;;10.20;79.10;;;;;;5012039;28;20355;-66
2021/07/15 02:42:44;;;;;;;1.95;0.65;;;10.20;79.20;;;;;;5012349;28;20030;-66
2021/07/15 02:45:14;;;;;;;1.45;0.82;;;10.20;79.60;;;;;;5015400;28;20510;-65
2021/07/15 02:47:45;;;;;;;1.77;1.08;;;10.20;79.90;;;;;;5012107;28;20026;-66
2021/07/15 02:50:14;;;;;;;2.60;1.38;;;10.30;79.90;;;;;;5009899;28;20018;-66
2021/07/15 02:52:41;;;;;;;1.25;1.15;;;10.30;79.70;;;;;;5021016;28;20021;-66
2021/07/15 02:55:11;;;;;;;2.95;1.13;;;10.30;79.50;;;;;;5011196;28;20033;-65
2021/07/15 02:57:56;;;;;;;3.38;1.90;;;10.30;79.10;;;;;;5009333;28;20551;-66
2021/07/15 03:00:25;;;;;;;6.47;1.97;;;10.20;78.80;;;;;;5011026;28;20029;-65
2021/07/15 03:03:01;;;;;;;5.38;1.92;;;10.30;78.80;;;;;;5010467;28;20069;-66
2021/07/15 03:05:48;;;;;;;3.08;1.30;;;10.20;78.50;;;;;;5011235;28;20588;-67
2021/07/15 03:08:29;;;;;;;2.72;1.80;;;10.20;78.40;;;;;;5011016;28;20041;-66
2021/07/15 03:10:57;;;;;;;3.97;2.53;;;10.20;78.40;;;;;;5009145;28;20022;-67
2021/07/15 03:13:26;;;;;;;3.60;2.13;;;10.10;78.40;;;;;;5012231;28;20025;-66
2021/07/15 03:15:53;;;;;;;4.18;3.45;;;10.10;78.70;;;;;;5011140;28;20026;-66
2021/07/15 03:18:22;;;;;;;4.35;2.38;;;10.20;78.60;;;;;;5015108;28;20053;-66
2021/07/15 03:20:51;;;;;;;2.88;1.90;;;10.10;78.50;;;;;;5011965;28;20602;-66
2021/07/15 03:23:21;;;;;;;2.63;1.75;;;10.10;78.60;;;;;;5012904;28;20540;-66
2021/07/15 03:25:50;;;;;;;2.72;2.10;;;10.10;78.60;;;;;;5009476;28;20016;-66
2021/07/15 03:28:22;;;;;;;6.80;1.65;;;10.10;78.70;;;;;;5011468;28;20467;-66
2021/07/15 03:30:50;;;;;;;2.40;2.08;;;10.00;78.60;;;;;;5008315;28;20018;-66
2021/07/15 03:33:20;;;;;;;1.88;1.40;;;10.00;78.70;;;;;;5011378;28;20045;-67
2021/07/15 03:35:48;;;;;;;3.63;1.30;;;10.00;78.90;;;;;;5013141;28;20639;-66
2021/07/15 03:38:15;;;;;;;5.10;1.67;;;10.00;78.90;;;;;;5011322;28;20544;-66
2021/07/15 03:40:42;;;;;;;4.60;1.85;;;10.00;79.00;;;;;;5011198;28;20096;-66
2021/07/15 03:43:13;;;;;;;5.13;2.67;;;10.00;79.20;;;;;;5012529;28;20030;-66
2021/07/15 03:45:41;;;;;;;2.95;2.42;;;10.00;79.00;;;;;;5014861;28;20113;-66
2021/07/15 03:48:09;;;;;;;4.90;2.10;;;10.00;78.90;;;;;;5012625;28;20584;-66
2021/07/15 03:50:36;;;;;;;2.47;1.95;;;10.00;78.80;;;;;;5009245;28;20057;-66
2021/07/15 03:53:05;;;;;;;2.70;2.17;;;10.00;78.80;;;;;;5012013;28;20022;-66
2021/07/15 03:55:35;;;;;;;4.13;2.25;;;10.00;78.80;;;;;;5009848;28;20113;-67
2021/07/15 03:58:13;;;;;;;4.55;1.92;;;9.90;78.90;;;;;;5011244;28;20109;-67
2021/07/15 04:00:44;;;;;;;2.65;1.92;;;9.90;79.10;;;;;;5011203;28;20022;-65
2021/07/15 04:03:19;;;;;;;2.90;1.90;;;9.90;79.10;;;;;;5011865;28;20049;-66
2021/07/15 04:05:46;;;;;;;3.17;1.92;;;9.90;78.90;;;;;;5010948;28;20029;-66
2021/07/15 04:08:15;;;;;;;13.73;9.50;;;9.90;78.70;;;;;;5010663;28;20427;-66
2021/07/15 04:10:43;;;;;;;134.88;96.68;;;9.80;78.80;;;;;;5012538;28;20196;-66
2021/07/15 04:13:13;;;;;;;13.70;9.25;;;9.90;78.80;;;;;;5008819;28;20014;-65
2021/07/15 04:16:19;;;;;;;4.25;2.67;;;9.80;78.80;;;;;;5010973;28;20053;-65
2021/07/15 04:18:47;;;;;;;4.50;2.20;;;9.80;78.70;;;;;;5015638;28;20400;-64
2021/07/15 04:21:16;;;;;;;6.72;2.85;;;9.80;79.00;;;;;;5013281;28;20032;-67
2021/07/15 04:24:23;;;;;;;7.90;2.05;;;9.70;79.00;;;;;;5011800;28;20038;-65
2021/07/15 04:27:29;;;;;;;43.00;30.93;;;9.70;79.40;;;;;;5014206;28;20030;-65
2021/07/15 04:30:06;;;;;;;13.20;8.27;;;9.70;79.40;;;;;;5009531;28;20033;-66
2021/07/15 04:32:39;;;;;;;4.00;3.10;;;9.70;79.30;;;;;;5015558;28;20109;-65
2021/07/15 04:35:08;;;;;;;7.57;2.55;;;9.70;79.30;;;;;;5015800;28;20424;-65
2021/07/15 04:37:37;;;;;;;3.25;1.70;;;9.70;79.40;;;;;;5016123;28;20033;-65
2021/07/15 04:40:07;;;;;;;4.20;1.92;;;9.70;79.50;;;;;;5011294;28;20420;-66
2021/07/15 04:42:36;;;;;;;5.15;1.92;;;9.70;79.40;;;;;;5011903;28;20704;-68
2021/07/15 04:45:03;;;;;;;5.25;2.15;;;9.70;79.60;;;;;;5013683;28;20049;-67
2021/07/15 04:47:32;;;;;;;3.30;2.30;;;9.70;79.70;;;;;;5009921;28;20049;-69
2021/07/15 04:49:59;;;;;;;3.25;2.38;;;9.70;79.80;;;;;;5014667;28;20133;-65
2021/07/15 04:52:28;;;;;;;2.55;1.95;;;9.70;79.70;;;;;;5013639;28;20034;-65
2021/07/15 04:54:57;;;;;;;5.75;1.98;;;9.60;79.50;;;;;;5013454;28;20139;-66
2021/07/15 04:57:24;;;;;;;9.18;2.28;;;9.60;79.50;;;;;;5012362;28;20350;-65
2021/07/15 04:59:51;;;;;;;3.75;2.72;;;9.60;79.20;;;;;;5011614;28;20025;-65
2021/07/15 05:02:20;;;;;;;2.97;2.70;;;9.60;79.20;;;;;;5014848;28;20477;-65
2021/07/15 05:04:47;;;;;;;4.60;2.53;;;9.60;79.10;;;;;;5010003;28;20416;-65
2021/07/15 05:07:13;;;;;;;5.93;3.10;;;9.60;78.90;;;;;;5012419;28;20040;-65
2021/07/15 05:09:40;;;;;;;3.95;3.17;;;9.50;79.00;;;;;;5008501;28;20060;-65
2021/07/15 05:12:08;;;;;;;6.97;3.05;;;9.50;79.10;;;;;;5010223;28;20512;-65
2021/07/15 05:14:40;;;;;;;9.18;3.63;;;9.50;79.10;;;;;;5010876;28;20076;-66
2021/07/15 05:17:09;;;;;;;4.55;3.35;;;9.50;79.00;;;;;;5011150;28;20024;-65
2021/07/15 05:19:36;;;;;;;4.00;3.33;;;9.50;80.00;;;;;;5015051;28;20435;-65
2021/07/15 05:22:04;;;;;;;5.22;2.88;;;9.50;79.60;;;;;;5009071;28;20062;-66
2021/07/15 05:24:30;;;;;;;6.00;2.95;;;9.50;79.80;;;;;;5010560;28;20068;-65
2021/07/15 05:26:57;;;;;;;4.82;3.35;;;9.50;79.70;;;;;;5012180;28;20066;-65
2021/07/15 05:29:23;;;;;;;4.00;2.55;;;9.50;79.40;;;;;;5009104;28;20418;-65
2021/07/15 05:31:50;;;;;;;3.50;3.00;;;9.50;79.40;;;;;;5011315;28;20034;-66
2021/07/15 05:34:19;;;;;;;2.28;2.08;;;9.50;79.40;;;;;;5010661;28;20018;-66
2021/07/15 05:36:46;;;;;;;7.07;3.05;;;9.40;79.20;;;;;;5011675;28;20030;-65
2021/07/15 05:39:52;;;;;;;8.05;3.05;;;9.40;79.50;;;;;;5007997;28;20088;-66
2021/07/15 05:42:58;;;;;;;7.55;3.53;;;9.40;79.80;;;;;;5007403;28;20052;-65
2021/07/15 05:45:44;;;;;;;9.40;3.40;;;9.40;80.00;;;;;;5011018;28;20030;-66
2021/07/15 05:48:11;;;;;;;6.53;3.13;;;9.40;80.00;;;;;;5007909;28;20033;-65
2021/07/15 05:50:37;;;;;;;6.32;3.33;;;9.40;79.80;;;;;;5008972;28;20036;-65
2021/07/15 05:53:04;;;;;;;4.75;3.22;;;9.40;79.60;;;;;;5011528;28;20504;-65
2021/07/15 05:55:30;;;;;;;5.72;2.67;;;9.40;79.50;;;;;;5012743;28;20013;-66
2021/07/15 05:57:57;;;;;;;5.45;3.70;;;9.40;79.50;;;;;;5013212;28;20010;-65
2021/07/15 06:00:23;;;;;;;4.63;2.60;;;9.40;79.40;;;;;;5011961;28;20018;-66
2021/07/15 06:02:50;;;;;;;8.10;3.63;;;9.40;79.60;;;;;;5011039;28;20072;-66
2021/07/15 06:05:16;;;;;;;6.90;2.90;;;9.40;79.70;;;;;;5009300;28;20063;-65
2021/07/15 06:07:43;;;;;;;7.13;3.35;;;9.40;79.70;;;;;;5009448;28;20191;-66
2021/07/15 06:10:10;;;;;;;5.70;3.17;;;9.40;79.70;;;;;;5009771;28;20030;-65
2021/07/15 06:12:37;;;;;;;4.90;3.30;;;9.40;79.90;;;;;;5010632;28;20026;-64
2021/07/15 06:15:05;;;;;;;7.43;3.63;;;9.40;80.00;;;;;;5014526;28;20025;-64
2021/07/15 06:17:31;;;;;;;32.22;20.60;;;9.40;80.00;;;;;;5010549;28;20491;-64
2021/07/15 06:20:28;;;;;;;59.78;34.42;;;9.40;80.00;;;;;;5011508;28;20026;-65
2021/07/15 06:22:54;;;;;;;27.33;15.80;;;9.40;80.30;;;;;;5018797;28;20038;-64
2021/07/15 06:25:22;;;;;;;8.38;3.78;;;9.50;80.20;;;;;;5008670;28;20068;-65
2021/07/15 06:27:52;;;;;;;5.78;2.95;;;9.50;80.10;;;;;;5008996;28;20394;-64
2021/07/15 06:30:18;;;;;;;8.93;3.03;;;9.50;80.20;;;;;;5008367;28;20041;-64
2021/07/15 06:32:45;;;;;;;4.45;2.80;;;9.50;80.40;;;;;;5005300;28;20014;-64
2021/07/15 06:35:14;;;;;;;4.88;2.13;;;9.50;80.40;;;;;;5007957;28;20025;-64
2021/07/15 06:37:41;;;;;;;7.10;2.60;;;9.60;80.50;;;;;;5007491;28;20030;-64
2021/07/15 06:40:10;;;;;;;5.82;2.28;;;9.60;80.40;;;;;;5009507;28;20924;-64
2021/07/15 06:42:37;;;;;;;4.93;2.28;;;9.60;80.60;;;;;;5009559;28;20579;-64
2021/07/15 06:45:06;;;;;;;3.17;1.80;;;9.60;80.70;;;;;;5007751;28;20092;-65
2021/07/15 06:47:33;;;;;;;7.70;2.10;;;9.70;80.90;;;;;;5008560;28;20033;-65
2021/07/15 06:50:00;;;;;;;5.57;2.40;;;9.70;81.80;;;;;;5008716;28;20488;-65
2021/07/15 06:52:29;;;;;;;9.50;3.65;;;9.80;81.20;;;;;;5006582;28;20496;-65
2021/07/15 06:54:57;;;;;;;11.85;4.57;;;9.80;81.20;;;;;;5010090;28;20030;-65
2021/07/15 06:57:24;;;;;;;13.02;8.10;;;9.90;81.30;;;;;;5009528;28;20014;-65
2021/07/15 06:59:51;;;;;;;92.95;61.20;;;9.90;81.30;;;;;;5008246;28;20029;-64
2021/07/15 07:02:17;;;;;;;48.33;32.30;;;10.00;81.40;;;;;;5009095;28;20025;-64
2021/07/15 07:04:44;;;;;;;19.38;11.07;;;10.00;81.40;;;;;;5008116;28;20048;-64
2021/07/15 07:07:10;;;;;;;12.82;7.95;;;10.10;81.60;;;;;;5009057;28;20018;-65
2021/07/15 07:09:37;;;;;;;13.30;8.75;;;10.10;81.50;;;;;;5007900;28;20469;-64
2021/07/15 07:12:04;;;;;;;17.75;7.05;;;10.20;81.60;;;;;;5010340;28;20026;-64
2021/07/15 07:14:30;;;;;;;17.48;5.93;;;10.20;81.60;;;;;;5008236;28;20018;-65
2021/07/15 07:16:56;;;;;;;14.38;6.40;;;10.30;81.70;;;;;;5007818;28;20520;-64
2021/07/15 07:19:23;;;;;;;13.52;6.07;;;10.40;81.50;;;;;;5010031;28;20045;-65
2021/07/15 07:21:50;;;;;;;10.43;6.28;;;10.40;81.40;;;;;;5008662;28;20071;-64
2021/07/15 07:24:16;;;;;;;12.57;5.22;;;10.40;82.20;;;;;;5009865;28;20041;-65
2021/07/15 07:26:43;;;;;;;13.18;5.95;;;10.50;81.50;;;;;;5007119;28;20014;-65
2021/07/15 07:29:09;;;;;;;19.05;10.13;;;10.50;81.60;;;;;;5009156;28;20100;-64
2021/07/15 07:31:36;;;;;;;107.80;65.43;;;10.60;81.80;;;;;;5006886;28;20925;-64
2021/07/15 07:34:02;;;;;;;68.40;42.15;;;10.60;82.00;;;;;;5009919;28;20057;-64
2021/07/15 07:36:29;;;;;;;40.13;23.38;;;10.70;82.10;;;;;;5007607;28;20157;-64
2021/07/15 07:38:55;;;;;;;16.98;10.52;;;10.70;82.10;;;;;;5006320;28;20501;-64
2021/07/15 07:41:22;;;;;;;12.27;6.32;;;10.70;82.30;;;;;;5006696;28;20026;-64
2021/07/15 07:43:48;;;;;;;13.10;6.03;;;10.80;82.50;;;;;;5010183;28;20205;-64
2021/07/15 07:46:15;;;;;;;11.20;6.43;;;10.90;82.80;;;;;;5008709;28;20558;-64
2021/07/15 07:48:41;;;;;;;13.02;7.57;;;10.90;82.90;;;;;;5004604;28;20025;-65
2021/07/15 07:51:08;;;;;;;9.05;6.13;;;10.90;83.10;;;;;;5011061;28;20901;-64
2021/07/15 07:53:34;;;;;;;8.10;5.60;;;11.00;83.40;;;;;;5011553;28;20354;-64
2021/07/15 07:56:01;;;;;;;8.90;4.55;;;11.00;83.50;;;;;;5014246;28;20511;-64
2021/07/15 07:58:27;;;;;;;11.73;5.18;;;11.10;83.80;;;;;;5009789;28;20545;-64
2021/07/15 08:00:54;;;;;;;8.48;4.40;;;11.10;84.30;;;;;;5010572;28;20029;-64
2021/07/15 08:03:20;;;;;;;7.88;3.85;;;11.20;84.70;;;;;;5012818;28;20036;-64
2021/07/15 08:05:47;;;;;;;8.02;2.78;;;11.30;85.10;;;;;;5012091;28;20604;-64
2021/07/15 08:08:17;;;;;;;11.25;3.20;;;11.40;85.00;;;;;;5011669;28;20520;-64
2021/07/15 08:10:44;;;;;;;5.93;2.50;;;11.50;84.80;;;;;;5012259;28;20029;-64
2021/07/15 08:13:11;;;;;;;15.23;2.95;;;11.60;84.20;;;;;;5012342;28;20117;-64
2021/07/15 08:15:38;;;;;;;6.43;2.88;;;11.70;83.70;;;;;;5011863;28;20069;-64
2021/07/15 08:18:04;;;;;;;6.40;2.17;;;11.80;82.20;;;;;;5012792;28;20153;-64
2021/07/15 08:20:31;;;;;;;10.13;2.53;;;11.90;81.80;;;;;;5010581;28;20030;-65
2021/07/15 08:22:57;;;;;;;7.60;1.50;;;12.10;80.00;;;;;;5011035;28;20041;-65
2021/07/15 08:25:24;;;;;;;6.35;1.30;;;12.20;80.10;;;;;;5014971;28;20018;-64
2021/07/15 08:27:51;;;;;;;7.25;1.20;;;12.30;78.10;;;;;;5012768;28;20423;-65
2021/07/15 08:30:19;;;;;;;4.70;0.90;;;12.50;76.70;;;;;;5011568;28;21751;-64
2021/07/15 08:32:45;;;;;;;5.03;0.93;;;12.60;72.40;;;;;;5012765;28;20033;-66
2021/07/15 08:35:12;;;;;;;4.15;1.20;;;12.70;71.50;;;;;;5013341;28;20025;-65
2021/07/15 08:37:39;;;;;;;11.05;1.50;;;12.80;70.40;;;;;;5013428;28;20151;-66
2021/07/15 08:40:08;;;;;;;4.00;1.25;;;13.00;70.20;;;;;;5014145;28;20101;-66
2021/07/15 08:42:37;;;;;;;6.32;1.15;;;13.10;69.40;;;;;;5012846;28;20018;-66
2021/07/15 08:45:07;;;;;;;3.30;1.10;;;13.20;67.80;;;;;;5011610;28;20061;-66
2021/07/15 08:47:39;;;;;;;11.40;1.75;;;13.30;69.40;;;;;;5012627;28;20112;-66
2021/07/15 08:50:07;;;;;;;6.97;0.88;;;13.30;68.40;;;;;;5012219;28;20101;-66
2021/07/15 08:52:38;;;;;;;9.00;0.93;;;13.40;67.00;;;;;;5012435;28;20374;-66
2021/07/15 08:57:42;;;;;;;4.15;1.25;;;13.50;67.00;;;;;;5011878;28;20547;-66
2021/07/15 09:00:11;;;;;;;8.07;1.08;;;13.60;67.60;;;;;;5010791;28;20061;-66
2021/07/15 09:02:39;;;;;;;5.97;1.10;;;13.70;67.30;;;;;;5009766;28;20057;-66
2021/07/15 09:05:07;;;;;;;7.43;1.20;;;13.80;67.90;;;;;;5014099;28;20125;-66
2021/07/15 09:07:35;;;;;;;7.47;2.45;;;13.90;67.30;;;;;;5009876;28;20363;-67
2021/07/15 09:10:03;;;;;;;6.97;1.42;;;14.00;66.50;;;;;;5012720;28;20022;-66
2021/07/15 09:12:29;;;;;;;2.15;0.57;;;14.10;66.00;;;;;;5012079;28;20017;-66
2021/07/15 09:14:56;;;;;;;5.25;0.57;;;14.10;64.40;;;;;;5011800;28;20044;-67
2021/07/15 09:17:31;;;;;;;2.05;0.50;;;14.20;64.10;;;;;;5010939;28;20033;-66
2021/07/15 09:19:58;;;;;;;3.20;0.55;;;14.30;63.00;;;;;;5009165;28;20025;-66
2021/07/15 09:22:25;;;;;;;1.77;0.55;;;14.40;62.00;;;;;;5010893;28;20389;-67
2021/07/15 09:24:51;;;;;;;0.68;0.40;;;14.50;62.60;;;;;;5012056;28;20078;-66
2021/07/15 09:27:26;;;;;;;3.03;1.05;;;14.60;62.40;;;;;;5011855;28;20026;-66
2021/07/15 09:30:09;;;;;;;2.33;0.40;;;14.70;62.30;;;;;;5012438;28;20025;-66
2021/07/15 09:32:56;;;;;;;0.90;0.50;;;14.70;61.40;;;;;;5011349;28;20052;-66
2021/07/15 09:35:32;;;;;;;1.73;0.73;;;14.80;60.30;;;;;;5009778;28;20323;-66
2021/07/15 09:38:19;;;;;;;2.83;0.45;;;14.90;59.70;;;;;;5009870;28;20049;-67
2021/07/15 09:40:49;;;;;;;1.15;0.40;;;15.00;60.80;;;;;;5011704;28;20024;-67
2021/07/15 09:43:25;;;;;;;1.30;0.40;;;15.10;59.00;;;;;;5010980;28;20034;-66
2021/07/15 09:45:58;;;;;;;1.30;0.60;;;15.20;57.90;;;;;;5009738;28;20080;-66
2021/07/15 09:48:28;;;;;;;2.85;0.50;;;15.20;59.30;;;;;;5013756;28;20604;-66
2021/07/15 09:51:00;;;;;;;1.92;0.90;;;15.30;58.80;;;;;;5007775;28;20029;-66
2021/07/15 09:53:30;;;;;;;4.22;0.75;;;15.40;59.00;;;;;;5010913;28;20060;-67
2021/07/15 09:56:03;;;;;;;1.83;0.80;;;15.50;58.70;;;;;;5011265;28;20496;-67
2021/07/15 09:58:41;;;;;;;3.72;0.90;;;15.60;58.50;;;;;;5011205;28;20009;-66
2021/07/15 10:01:13;;;;;;;1.83;0.60;;;15.60;56.70;;;;;;5009473;28;20840;-66
2021/07/15 10:03:42;;;;;;;1.40;0.68;;;15.60;56.70;;;;;;5008905;28;20037;-67
2021/07/15 10:06:11;;;;;;;2.33;0.40;;;15.60;56.00;;;;;;5010006;28;20030;-67
2021/07/15 10:08:42;;;;;;;3.25;0.65;;;15.70;55.10;;;;;;5008858;28;20022;-66
2021/07/15 10:11:23;;;;;;;1.67;0.80;;;15.70;55.70;;;;;;5009505;28;20037;-66
2021/07/15 10:14:10;;;;;;;6.20;1.10;;;15.80;56.40;;;;;;5008582;28;20065;-66
2021/07/15 10:16:47;;;;;;;3.72;1.13;;;15.90;56.90;;;;;;5008697;28;20021;-67
2021/07/15 10:19:22;;;;;;;2.17;0.73;;;16.00;57.10;;;;;;5009595;28;20049;-67
2021/07/15 10:21:58;;;;;;;;;;;16.10;56.30;;;;;;5013367;28;20026;-67
2021/07/15 10:24:25;;;;;;;2.38;1.52;;;16.20;56.30;;;;;;5010475;28;19917;-67
2021/07/15 10:27:38;;;;;;;4.68;1.42;;;16.30;56.60;;;;;;5004075;28;20037;-67
2021/07/15 10:30:44;;;;;;;5.20;1.08;;;16.40;57.20;;;;;;5009445;28;20038;-67
2021/07/15 10:33:50;;;;;;;4.97;1.15;;;16.40;57.10;;;;;;5012550;28;20038;-67
2021/07/15 10:36:59;;;;;;;4.40;0.98;;;16.50;57.40;;;;;;5008353;28;20068;-67
2021/07/15 10:39:28;;;;;;;2.97;1.17;;;16.50;57.80;;;;;;5010485;28;20384;-67
2021/07/15 10:41:57;;;;;;;6.53;1.20;;;16.70;58.60;;;;;;5006031;28;20036;-66
2021/07/15 10:44:27;;;;;;;6.90;1.77;;;16.80;58.40;;;;;;5007435;28;20689;-66
2021/07/15 10:46:54;;;;;;;4.63;1.63;;;16.90;57.80;;;;;;5009311;28;20033;-67
2021/07/15 10:49:22;;;;;;;3.85;1.50;;;17.00;57.50;;;;;;5013472;28;20014;-67
2021/07/15 10:51:52;;;;;;;4.63;1.10;;;17.10;57.60;;;;;;5012242;28;20021;-67
2021/07/15 10:54:19;;;;;;;2.55;0.80;;;17.20;56.80;;;;;;5007375;28;20017;-67
2021/07/15 10:56:50;;;;;;;3.92;1.10;;;17.20;56.40;;;;;;5012900;28;20467;-67
2021/07/15 10:59:24;;;;;;;4.00;1.02;;;17.20;56.00;;;;;;5005704;28;20032;-66
2021/07/15 11:01:51;;;;;;;4.47;1.08;;;17.30;55.20;;;;;;5011219;28;20028;-67
2021/07/15 11:04:33;;;;;;;7.25;1.10;;;17.30;54.50;;;;;;5009530;28;20030;-67
2021/07/15 11:07:19;;;;;;;2.40;0.40;;;17.30;53.80;;;;;;5017069;28;20051;-67
2021/07/15 11:09:47;;;;;;;3.72;0.70;;;17.30;53.10;;;;;;5010112;28;20495;-67
2021/07/15 11:12:59;;;;;;;5.10;1.58;;;17.30;53.40;;;;;;5011466;28;20049;-67
2021/07/15 11:15:53;;;;;;;0.98;0.70;;;17.40;53.90;;;;;;5006540;28;20014;-67
2021/07/15 11:18:40;;;;;;;2.83;1.02;;;17.40;53.30;;;;;;5009132;28;20128;-67
2021/07/15 11:21:25;;;;;;;1.08;0.50;;;17.50;53.10;;;;;;5011590;28;20060;-66
2021/07/15 11:24:12;;;;;;;4.10;0.65;;;17.50;52.30;;;;;;5012842;28;20066;-67
2021/07/15 11:26:43;;;;;;;2.50;0.77;;;17.40;52.90;;;;;;5017633;28;20131;-67
2021/07/15 11:29:12;;;;;;;3.72;0.80;;;17.50;53.10;;;;;;5016209;28;20025;-69
2021/07/15 11:31:51;;;;;;;7.13;1.15;;;17.60;53.40;;;;;;5017214;28;20056;-67
2021/07/15 11:34:36;;;;;;;4.53;0.80;;;17.60;53.20;;;;;;5013372;28;20398;-66
2021/07/15 11:37:36;;;;;;;3.83;0.75;;;17.60;54.40;;;;;;5014563;28;20034;-67
2021/07/15 11:40:06;;;;;;;5.32;0.73;;;17.60;55.00;;;;;;5015679;28;20026;-67
2021/07/15 11:42:42;;;;;;;4.18;0.90;;;17.80;55.40;;;;;;5013495;28;20101;-67
2021/07/15 11:45:10;;;;;;;3.40;0.98;;;17.80;55.30;;;;;;5016664;28;20053;-68
2021/07/15 11:47:51;;;;;;;6.60;1.00;;;17.90;55.00;;;;;;5013122;28;20014;-69
2021/07/15 11:50:37;;;;;;;2.75;0.95;;;17.90;55.00;;;;;;5016713;28;20025;-68
2021/07/15 11:53:20;;;;;;;3.15;1.15;;;18.00;55.10;;;;;;5015199;28;20025;-67
2021/07/15 11:55:53;;;;;;;6.63;3.70;;;18.00;55.00;;;;;;5013269;28;20516;-68
2021/07/15 11:58:51;;;;;;;2.10;0.90;;;18.00;55.00;;;;;;5014642;28;20480;-68
2021/07/15 12:01:29;;;;;;;2.47;0.90;;;18.00;54.10;;;;;;5015648;28;20037;-70
2021/07/15 12:04:07;;;;;;;8.18;1.55;;;18.00;54.70;;;;;;5012776;28;20377;-68
2021/07/15 12:06:36;;;;;;;1.30;0.68;;;18.00;54.70;;;;;;5017444;28;20053;-67
2021/07/15 12:09:13;;;;;;;3.97;0.68;;;18.00;54.90;;;;;;5014063;28;20100;-69
2021/07/15 12:11:42;;;;;;;5.25;0.80;;;18.00;55.50;;;;;;5015536;28;20037;-68
2021/07/15 12:14:09;;;;;;;5.75;1.25;;;18.10;55.90;;;;;;5013101;28;20014;-68
2021/07/15 12:16:40;;;;;;;2.53;1.08;;;18.20;55.70;;;;;;5016477;28;20060;-67
2021/07/15 12:19:11;;;;;;;1.02;0.50;;;18.20;56.20;;;;;;5015025;28;20096;-69
2021/07/15 12:21:39;;;;;;;2.35;0.70;;;18.30;56.00;;;;;;5012495;28;20030;-69
2021/07/15 12:24:18;;;;;;;0.28;0.22;;;18.20;57.10;;;;;;5015116;28;20037;-68
2021/07/15 12:26:45;;;;;;;2.90;0.88;;;18.30;57.60;;;;;;5013702;28;20021;-69
2021/07/15 12:29:14;;;;;;;2.13;0.70;;;18.30;57.50;;;;;;5015394;28;20037;-68
2021/07/15 12:31:41;;;;;;;1.90;0.50;;;18.20;57.50;;;;;;5013523;28;20025;-67
2021/07/15 12:34:10;;;;;;;6.07;1.70;;;18.30;57.60;;;;;;5014624;28;20022;-69
2021/07/15 12:36:40;;;;;;;22.52;15.77;;;18.30;57.90;;;;;;5011619;28;20025;-70
2021/07/15 12:39:25;;;;;;;3.88;1.85;;;18.30;57.50;;;;;;5007324;28;20025;-70
2021/07/15 12:41:51;;;;;;;5.03;0.90;;;18.30;58.00;;;;;;5008200;28;20030;-70
2021/07/15 12:44:19;;;;;;;2.13;0.90;;;18.30;57.80;;;;;;5013584;28;20026;-71
2021/07/15 12:46:52;;;;;;;1.52;0.82;;;18.30;58.20;;;;;;5009175;28;20018;-70
2021/07/15 12:49:22;;;;;;;3.97;0.68;;;18.40;58.10;;;;;;5009271;28;20029;-71
2021/07/15 12:51:59;;;;;;;1.33;0.70;;;18.30;58.10;;;;;;5011159;28;20524;-71
2021/07/15 12:54:35;;;;;;;1.65;0.60;;;18.40;58.20;;;;;;5007997;28;20136;-70
2021/07/15 12:57:10;;;;;;;0.82;0.40;;;18.40;58.80;;;;;;5010072;28;20029;-71
2021/07/15 12:59:37;;;;;;;;;;;18.50;58.60;;;;;;5008685;28;20539;-71
2021/07/15 13:02:03;;;;;;;3.28;0.60;;;18.40;58.00;;;;;;5010883;28;19962;-75
2021/07/15 13:04:34;;;;;;;2.30;1.73;;;18.40;58.60;;;;;;5009862;28;20034;-71
2021/07/15 13:07:07;;;;;;;40.55;27.40;;;18.40;58.20;;;;;;5011090;28;20512;-71
2021/07/15 13:09:42;;;;;;;24.30;13.90;;;18.40;58.90;;;;;;5010636;28;20108;-70
2021/07/15 13:15:05;;;;;;;4.38;0.50;;;18.40;58.60;;;;;;5009545;28;20048;-71
2021/07/15 13:17:37;;;;;;;1.73;0.68;;;18.40;59.10;;;;;;5010885;28;20042;-71
2021/07/15 13:20:14;;;;;;;1.75;0.55;;;18.40;59.50;;;;;;5009455;28;20025;-71